This is the latest recevied weather packets stored in our database for station/object AB4KY. If no packets are shown the sender has not sent any weather packets the latest 10 day(s).
| Time | Temp. | Humidity | Pressure | Rain* | Wind** | Luminosity | Snow |
|---|---|---|---|---|---|---|---|
| 1777900948 | 12.78° C | 95% | 1007.7 hPa | 0 mm | - | 59 W/m² | - |
| 1777900645 | 12.78° C | 95% | 1007.7 hPa | 0 mm | - | 46 W/m² | - |
| 1777900342 | 12.22° C | 95% | 1007.7 hPa | 0 mm | - | 53 W/m² | - |
| 1777900039 | 12.22° C | 96% | 1007.6 hPa | 0 mm | - | 24 W/m² | - |
| 1777899735 | 11.67° C | 95% | 1007.4 hPa | 0 mm | - | 12 W/m² | - |
| 1777899433 | 11.67° C | 95% | 1007.7 hPa | 1.78 mm | - | 2 W/m² | - |
| 1777899130 | 11.67° C | 94% | 1007.7 hPa | 3.05 mm | - | 4 W/m² | - |
| 1777898827 | 12.22° C | 93% | 1009.7 hPa | 3.05 mm | - | 0 W/m² | - |
| 1777898525 | 12.22° C | 92% | 1009.9 hPa | 2.29 mm | - | 2 W/m² | - |
| 1777898222 | 12.78° C | 88% | 1009.7 hPa | 0.51 mm | - | 1 W/m² | - |
| 1777897919 | 12.78° C | 85% | 1009.2 hPa | 0 mm | - | 0 W/m² | - |
| 1777897615 | 12.78° C | 85% | 1009 hPa | 0 mm | - | 2 W/m² | - |
| 1777897311 | 12.22° C | 87% | 1009.2 hPa | 0 mm | - | 9 W/m² | - |
| 1777897007 | 12.22° C | 87% | 1009 hPa | 0.51 mm | - | 13 W/m² | - |
| 1777896704 | 12.22° C | 87% | 1008.9 hPa | 0.51 mm | - | 20 W/m² | - |
| 1777896401 | 12.78° C | 87% | 1008.9 hPa | 0 mm | - | 26 W/m² | - |
| 1777896099 | 12.78° C | 84% | 1009 hPa | 0.51 mm | - | 7 W/m² | - |
| 1777895797 | 13.33° C | 81% | 1009.1 hPa | 0.51 mm | - | 6 W/m² | - |
| 1777895494 | 13.33° C | 78% | 1008.9 hPa | 0 mm | - | 2 W/m² | - |
| 1777895192 | 13.33° C | 79% | 1009.4 hPa | 0 mm | - | 0 W/m² | - |
| 1777894889 | 13.33° C | 77% | 1008.9 hPa | 0 mm | - | 0 W/m² | - |
| 1777894586 | 12.78° C | 80% | 1008.8 hPa | 0 mm | - | 0 W/m² | - |
| 1777894283 | 12.78° C | 82% | 1009 hPa | 0 mm | - | 0 W/m² | - |
| 1777893980 | 11.67° C | 85% | 1008.5 hPa | 0 mm | - | 0 W/m² | - |
| 1777893676 | 11.67° C | 88% | 1008.7 hPa | 0 mm | - | 0 W/m² | - |
* Rain latest hour (hover to see other rain measurements)
** Current wind speed in m/s (hover to see current wind gust speed)